sensor_id;sensor_type;location;lat;lon;timestamp;temperature;humidity
48007;DHT22;33771;48.180;11.400;2023-06-14T00:01:17;12.10;99.90
48007;DHT22;33771;48.180;11.400;2023-06-14T00:03:45;12.10;99.90
48007;DHT22;33771;48.180;11.400;2023-06-14T00:06:12;12.10;99.90
48007;DHT22;33771;48.180;11.400;2023-06-14T00:08:38;12.00;99.90
48007;DHT22;33771;48.180;11.400;2023-06-14T00:11:05;12.00;99.90
48007;DHT22;33771;48.180;11.400;2023-06-14T00:13:31;11.90;99.90
48007;DHT22;33771;48.180;11.400;2023-06-14T00:15:57;11.90;99.90
48007;DHT22;33771;48.180;11.400;2023-06-14T00:18:23;11.90;99.90
48007;DHT22;33771;48.180;11.400;2023-06-14T00:20:52;11.90;99.90
48007;DHT22;33771;48.180;11.400;2023-06-14T00:23:18;11.80;99.90
48007;DHT22;33771;48.180;11.400;2023-06-14T00:25:43;11.80;99.90
48007;DHT22;33771;48.180;11.400;2023-06-14T00:28:09;11.80;99.90
48007;DHT22;33771;48.180;11.400;2023-06-14T00:30:35;11.80;99.90
48007;DHT22;33771;48.180;11.400;2023-06-14T00:33:00;11.80;99.90
48007;DHT22;33771;48.180;11.400;2023-06-14T00:35:26;11.70;99.90
48007;DHT22;33771;48.180;11.400;2023-06-14T00:37:52;11.70;99.90
48007;DHT22;33771;48.180;11.400;2023-06-14T00:40:17;11.70;99.90
48007;DHT22;33771;48.180;11.400;2023-06-14T00:42:43;11.60;99.90
48007;DHT22;33771;48.180;11.400;2023-06-14T00:45:09;11.60;99.90
48007;DHT22;33771;48.180;11.400;2023-06-14T00:47:38;11.50;99.90
48007;DHT22;33771;48.180;11.400;2023-06-14T00:50:07;11.50;99.90
48007;DHT22;33771;48.180;11.400;2023-06-14T00:52:33;11.40;99.90
48007;DHT22;33771;48.180;11.400;2023-06-14T00:55:00;11.40;99.90
48007;DHT22;33771;48.180;11.400;2023-06-14T00:57:27;11.30;99.90
48007;DHT22;33771;48.180;11.400;2023-06-14T00:59:53;11.30;99.90
48007;DHT22;33771;48.180;11.400;2023-06-14T01:02:19;11.20;99.90
48007;DHT22;33771;48.180;11.400;2023-06-14T01:04:46;11.20;99.90
48007;DHT22;33771;48.180;11.400;2023-06-14T01:12:24;11.10;99.90
48007;DHT22;33771;48.180;11.400;2023-06-14T01:14:54;11.10;99.90
48007;DHT22;33771;48.180;11.400;2023-06-14T01:17:21;11.00;99.90
48007;DHT22;33771;48.180;11.400;2023-06-14T01:19:48;11.00;99.90
48007;DHT22;33771;48.180;11.400;2023-06-14T01:22:14;11.00;99.90
48007;DHT22;33771;48.180;11.400;2023-06-14T01:24:40;10.90;99.90
48007;DHT22;33771;48.180;11.400;2023-06-14T01:27:10;10.90;99.90
48007;DHT22;33771;48.180;11.400;2023-06-14T01:29:36;10.90;99.90
48007;DHT22;33771;48.180;11.400;2023-06-14T01:32:02;10.90;99.90
48007;DHT22;33771;48.180;11.400;2023-06-14T01:34:28;10.90;99.90
48007;DHT22;33771;48.180;11.400;2023-06-14T01:36:54;10.90;99.90
48007;DHT22;33771;48.180;11.400;2023-06-14T01:39:20;10.90;99.90
48007;DHT22;33771;48.180;11.400;2023-06-14T01:41:47;10.90;99.90
48007;DHT22;33771;48.180;11.400;2023-06-14T01:44:16;10.80;99.90
48007;DHT22;33771;48.180;11.400;2023-06-14T01:46:42;10.70;99.90
48007;DHT22;33771;48.180;11.400;2023-06-14T01:49:09;10.60;99.90
48007;DHT22;33771;48.180;11.400;2023-06-14T01:51:34;10.60;99.90
48007;DHT22;33771;48.180;11.400;2023-06-14T01:54:00;10.60;99.90
48007;DHT22;33771;48.180;11.400;2023-06-14T01:56:26;10.60;99.90
48007;DHT22;33771;48.180;11.400;2023-06-14T01:58:52;10.50;99.90
48007;DHT22;33771;48.180;11.400;2023-06-14T02:01:19;10.50;99.90
48007;DHT22;33771;48.180;11.400;2023-06-14T02:03:46;10.40;99.90
48007;DHT22;33771;48.180;11.400;2023-06-14T02:06:12;10.40;99.90
48007;DHT22;33771;48.180;11.400;2023-06-14T02:08:38;10.30;99.90
48007;DHT22;33771;48.180;11.400;2023-06-14T02:11:03;10.30;99.90
48007;DHT22;33771;48.180;11.400;2023-06-14T02:13:29;10.20;99.90
48007;DHT22;33771;48.180;11.400;2023-06-14T02:15:54;10.20;99.90
48007;DHT22;33771;48.180;11.400;2023-06-14T02:18:20;10.20;99.90
48007;DHT22;33771;48.180;11.400;2023-06-14T02:20:47;10.20;99.90
48007;DHT22;33771;48.180;11.400;2023-06-14T02:23:13;10.10;99.90
48007;DHT22;33771;48.180;11.400;2023-06-14T02:25:38;10.10;99.90
48007;DHT22;33771;48.180;11.400;2023-06-14T02:28:05;10.10;99.90
48007;DHT22;33771;48.180;11.400;2023-06-14T02:30:31;10.10;99.90
48007;DHT22;33771;48.180;11.400;2023-06-14T02:32:56;10.10;99.90
48007;DHT22;33771;48.180;11.400;2023-06-14T02:35:22;10.10;99.90
48007;DHT22;33771;48.180;11.400;2023-06-14T02:37:53;10.10;99.90
48007;DHT22;33771;48.180;11.400;2023-06-14T02:40:19;10.10;99.90
48007;DHT22;33771;48.180;11.400;2023-06-14T02:42:45;10.10;99.90
48007;DHT22;33771;48.180;11.400;2023-06-14T02:45:11;10.00;99.90
48007;DHT22;33771;48.180;11.400;2023-06-14T02:47:36;10.00;99.90
48007;DHT22;33771;48.180;11.400;2023-06-14T02:50:02;10.00;99.90
48007;DHT22;33771;48.180;11.400;2023-06-14T02:52:28;9.90;99.90
48007;DHT22;33771;48.180;11.400;2023-06-14T02:54:53;9.90;99.90
48007;DHT22;33771;48.180;11.400;2023-06-14T02:57:20;9.80;99.90
48007;DHT22;33771;48.180;11.400;2023-06-14T02:59:46;9.80;99.90
48007;DHT22;33771;48.180;11.400;2023-06-14T03:02:11;9.70;99.90
48007;DHT22;33771;48.180;11.400;2023-06-14T03:04:39;9.70;99.90
48007;DHT22;33771;48.180;11.400;2023-06-14T03:07:06;9.60;99.90
48007;DHT22;33771;48.180;11.400;2023-06-14T03:09:35;9.60;99.90
48007;DHT22;33771;48.180;11.400;2023-06-14T03:12:02;9.60;99.90
48007;DHT22;33771;48.180;11.400;2023-06-14T03:14:28;9.50;99.90
48007;DHT22;33771;48.180;11.400;2023-06-14T03:16:56;9.50;99.90
48007;DHT22;33771;48.180;11.400;2023-06-14T03:19:22;9.40;99.90
48007;DHT22;33771;48.180;11.400;2023-06-14T03:21:48;9.40;99.90
48007;DHT22;33771;48.180;11.400;2023-06-14T03:24:15;9.40;99.90
48007;DHT22;33771;48.180;11.400;2023-06-14T03:26:42;9.40;99.90
48007;DHT22;33771;48.180;11.400;2023-06-14T03:29:07;9.40;99.90
48007;DHT22;33771;48.180;11.400;2023-06-14T03:31:34;9.40;99.90
48007;DHT22;33771;48.180;11.400;2023-06-14T03:34:00;9.40;99.90
48007;DHT22;33771;48.180;11.400;2023-06-14T03:36:26;9.40;99.90
48007;DHT22;33771;48.180;11.400;2023-06-14T03:38:53;9.40;99.90
48007;DHT22;33771;48.180;11.400;2023-06-14T03:41:18;9.40;99.90
48007;DHT22;33771;48.180;11.400;2023-06-14T03:43:44;9.40;99.90
48007;DHT22;33771;48.180;11.400;2023-06-14T03:46:10;9.40;99.90
48007;DHT22;33771;48.180;11.400;2023-06-14T03:48:35;9.40;99.90
48007;DHT22;33771;48.180;11.400;2023-06-14T03:51:01;9.40;99.90
48007;DHT22;33771;48.180;11.400;2023-06-14T03:53:27;9.40;99.90
48007;DHT22;33771;48.180;11.400;2023-06-14T03:55:54;9.50;99.90
48007;DHT22;33771;48.180;11.400;2023-06-14T03:58:20;9.40;99.90
48007;DHT22;33771;48.180;11.400;2023-06-14T04:00:46;9.50;99.90
48007;DHT22;33771;48.180;11.400;2023-06-14T04:03:11;9.50;99.90
48007;DHT22;33771;48.180;11.400;2023-06-14T04:05:39;9.50;99.90
48007;DHT22;33771;48.180;11.400;2023-06-14T04:08:07;9.50;99.90
48007;DHT22;33771;48.180;11.400;2023-06-14T04:10:34;9.50;99.90
48007;DHT22;33771;48.180;11.400;2023-06-14T04:13:00;9.60;99.90
48007;DHT22;33771;48.180;11.400;2023-06-14T04:15:25;9.60;99.90
48007;DHT22;33771;48.180;11.400;2023-06-14T04:17:53;9.70;99.90
48007;DHT22;33771;48.180;11.400;2023-06-14T04:20:22;9.70;99.90
48007;DHT22;33771;48.180;11.400;2023-06-14T04:22:49;9.80;99.90
48007;DHT22;33771;48.180;11.400;2023-06-14T04:25:15;9.80;99.90
48007;DHT22;33771;48.180;11.400;2023-06-14T04:27:40;9.90;99.90
48007;DHT22;33771;48.180;11.400;2023-06-14T04:30:07;10.00;99.90
48007;DHT22;33771;48.180;11.400;2023-06-14T04:32:33;10.10;99.90
48007;DHT22;33771;48.180;11.400;2023-06-14T04:34:59;10.10;99.90
48007;DHT22;33771;48.180;11.400;2023-06-14T04:37:27;10.20;99.90
48007;DHT22;33771;48.180;11.400;2023-06-14T04:39:55;10.30;99.90
48007;DHT22;33771;48.180;11.400;2023-06-14T04:42:21;10.40;99.90
48007;DHT22;33771;48.180;11.400;2023-06-14T04:44:50;10.60;99.90
48007;DHT22;33771;48.180;11.400;2023-06-14T04:47:17;10.70;99.90
48007;DHT22;33771;48.180;11.400;2023-06-14T04:49:43;10.80;99.90
48007;DHT22;33771;48.180;11.400;2023-06-14T04:52:09;10.90;99.90
48007;DHT22;33771;48.180;11.400;2023-06-14T04:54:51;11.00;99.90
48007;DHT22;33771;48.180;11.400;2023-06-14T04:57:19;11.10;99.90
48007;DHT22;33771;48.180;11.400;2023-06-14T04:59:48;11.30;99.90
48007;DHT22;33771;48.180;11.400;2023-06-14T05:02:13;11.40;99.90
48007;DHT22;33771;48.180;11.400;2023-06-14T05:04:39;11.50;99.90
48007;DHT22;33771;48.180;11.400;2023-06-14T05:07:09;11.50;99.90
48007;DHT22;33771;48.180;11.400;2023-06-14T05:09:35;11.60;99.90
48007;DHT22;33771;48.180;11.400;2023-06-14T05:12:01;11.70;99.90
48007;DHT22;33771;48.180;11.400;2023-06-14T05:14:27;11.80;99.90
48007;DHT22;33771;48.180;11.400;2023-06-14T05:16:52;11.90;99.90
48007;DHT22;33771;48.180;11.400;2023-06-14T05:19:19;12.00;99.90
48007;DHT22;33771;48.180;11.400;2023-06-14T05:21:46;12.10;99.90
48007;DHT22;33771;48.180;11.400;2023-06-14T05:24:13;12.20;99.90
48007;DHT22;33771;48.180;11.400;2023-06-14T05:26:38;12.40;99.90
48007;DHT22;33771;48.180;11.400;2023-06-14T05:29:04;12.50;99.90
48007;DHT22;33771;48.180;11.400;2023-06-14T05:31:30;12.70;99.90
48007;DHT22;33771;48.180;11.400;2023-06-14T05:33:55;12.90;99.90
48007;DHT22;33771;48.180;11.400;2023-06-14T05:36:21;13.00;99.90
48007;DHT22;33771;48.180;11.400;2023-06-14T05:38:46;13.20;99.90
48007;DHT22;33771;48.180;11.400;2023-06-14T05:41:12;13.40;99.90
48007;DHT22;33771;48.180;11.400;2023-06-14T05:43:38;13.50;99.90
48007;DHT22;33771;48.180;11.400;2023-06-14T05:46:03;13.70;99.90
48007;DHT22;33771;48.180;11.400;2023-06-14T05:48:30;13.80;99.90
48007;DHT22;33771;48.180;11.400;2023-06-14T05:50:58;14.00;99.90
48007;DHT22;33771;48.180;11.400;2023-06-14T05:53:24;14.20;99.90
48007;DHT22;33771;48.180;11.400;2023-06-14T05:55:50;14.40;99.90
48007;DHT22;33771;48.180;11.400;2023-06-14T05:58:18;14.50;99.90
48007;DHT22;33771;48.180;11.400;2023-06-14T06:00:44;14.70;99.90
48007;DHT22;33771;48.180;11.400;2023-06-14T06:03:11;14.80;99.90
48007;DHT22;33771;48.180;11.400;2023-06-14T06:05:38;15.00;99.90
48007;DHT22;33771;48.180;11.400;2023-06-14T06:08:04;15.10;99.90
48007;DHT22;33771;48.180;11.400;2023-06-14T06:10:29;15.30;99.90
48007;DHT22;33771;48.180;11.400;2023-06-14T06:12:55;15.40;99.90
48007;DHT22;33771;48.180;11.400;2023-06-14T06:15:20;15.50;99.90
48007;DHT22;33771;48.180;11.400;2023-06-14T06:17:46;15.70;99.90
48007;DHT22;33771;48.180;11.400;2023-06-14T06:20:12;15.80;99.90
48007;DHT22;33771;48.180;11.400;2023-06-14T06:22:38;16.00;99.90
48007;DHT22;33771;48.180;11.400;2023-06-14T06:25:04;16.10;99.90
48007;DHT22;33771;48.180;11.400;2023-06-14T06:27:31;16.20;99.90
48007;DHT22;33771;48.180;11.400;2023-06-14T06:29:57;16.30;99.90
48007;DHT22;33771;48.180;11.400;2023-06-14T06:32:22;16.50;99.90
48007;DHT22;33771;48.180;11.400;2023-06-14T06:34:48;16.60;99.90
48007;DHT22;33771;48.180;11.400;2023-06-14T06:37:14;16.70;99.90
48007;DHT22;33771;48.180;11.400;2023-06-14T06:39:39;16.90;99.90
48007;DHT22;33771;48.180;11.400;2023-06-14T06:42:05;17.00;99.90
48007;DHT22;33771;48.180;11.400;2023-06-14T06:44:32;17.10;99.90
48007;DHT22;33771;48.180;11.400;2023-06-14T06:46:58;17.20;99.90
48007;DHT22;33771;48.180;11.400;2023-06-14T06:49:24;17.30;99.90
48007;DHT22;33771;48.180;11.400;2023-06-14T06:51:59;17.40;99.90
48007;DHT22;33771;48.180;11.400;2023-06-14T06:54:26;17.50;99.90
48007;DHT22;33771;48.180;11.400;2023-06-14T06:56:51;17.60;99.90
48007;DHT22;33771;48.180;11.400;2023-06-14T06:59:17;17.70;99.90
48007;DHT22;33771;48.180;11.400;2023-06-14T07:01:42;17.80;99.90
48007;DHT22;33771;48.180;11.400;2023-06-14T07:04:08;18.00;99.90
48007;DHT22;33771;48.180;11.400;2023-06-14T07:06:33;18.10;99.90
48007;DHT22;33771;48.180;11.400;2023-06-14T07:08:59;18.20;99.90
48007;DHT22;33771;48.180;11.400;2023-06-14T07:11:27;18.10;99.90
48007;DHT22;33771;48.180;11.400;2023-06-14T07:13:52;18.20;99.90
48007;DHT22;33771;48.180;11.400;2023-06-14T07:16:18;18.20;99.90
48007;DHT22;33771;48.180;11.400;2023-06-14T07:18:43;18.20;99.90
48007;DHT22;33771;48.180;11.400;2023-06-14T07:21:09;18.20;99.90
48007;DHT22;33771;48.180;11.400;2023-06-14T07:23:35;18.30;99.90
48007;DHT22;33771;48.180;11.400;2023-06-14T07:26:01;18.30;99.90
48007;DHT22;33771;48.180;11.400;2023-06-14T07:28:27;18.30;99.90
48007;DHT22;33771;48.180;11.400;2023-06-14T07:30:52;18.40;99.90
48007;DHT22;33771;48.180;11.400;2023-06-14T07:33:18;18.50;99.90
48007;DHT22;33771;48.180;11.400;2023-06-14T07:35:43;18.60;99.90
48007;DHT22;33771;48.180;11.400;2023-06-14T07:38:09;18.70;99.90
48007;DHT22;33771;48.180;11.400;2023-06-14T07:40:34;18.80;99.90
48007;DHT22;33771;48.180;11.400;2023-06-14T07:43:00;18.90;99.90
48007;DHT22;33771;48.180;11.400;2023-06-14T07:45:27;18.90;99.90
48007;DHT22;33771;48.180;11.400;2023-06-14T07:47:53;18.90;99.90
48007;DHT22;33771;48.180;11.400;2023-06-14T07:50:18;19.00;99.90
48007;DHT22;33771;48.180;11.400;2023-06-14T07:52:44;19.10;99.90
48007;DHT22;33771;48.180;11.400;2023-06-14T07:55:10;19.20;99.90
48007;DHT22;33771;48.180;11.400;2023-06-14T07:57:36;19.40;99.90
48007;DHT22;33771;48.180;11.400;2023-06-14T08:00:02;19.40;99.90
48007;DHT22;33771;48.180;11.400;2023-06-14T08:02:31;19.40;99.90
48007;DHT22;33771;48.180;11.400;2023-06-14T08:04:56;19.50;99.90
48007;DHT22;33771;48.180;11.400;2023-06-14T08:07:22;19.50;99.90
48007;DHT22;33771;48.180;11.400;2023-06-14T08:09:48;19.70;99.90
48007;DHT22;33771;48.180;11.400;2023-06-14T08:12:13;19.70;99.90
48007;DHT22;33771;48.180;11.400;2023-06-14T08:14:39;19.80;99.90
48007;DHT22;33771;48.180;11.400;2023-06-14T08:17:05;19.80;99.90
48007;DHT22;33771;48.180;11.400;2023-06-14T08:19:31;19.80;99.90
48007;DHT22;33771;48.180;11.400;2023-06-14T08:21:56;19.90;99.90
48007;DHT22;33771;48.180;11.400;2023-06-14T08:24:22;19.90;99.90
48007;DHT22;33771;48.180;11.400;2023-06-14T08:26:52;20.00;99.90
48007;DHT22;33771;48.180;11.400;2023-06-14T08:29:18;20.00;99.90
48007;DHT22;33771;48.180;11.400;2023-06-14T08:31:44;20.10;98.40
48007;DHT22;33771;48.180;11.400;2023-06-14T08:34:09;20.10;98.10
48007;DHT22;33771;48.180;11.400;2023-06-14T08:36:35;20.20;97.30
48007;DHT22;33771;48.180;11.400;2023-06-14T08:39:01;20.20;96.70
48007;DHT22;33771;48.180;11.400;2023-06-14T08:41:28;20.20;96.00
48007;DHT22;33771;48.180;11.400;2023-06-14T08:43:58;20.30;97.10
48007;DHT22;33771;48.180;11.400;2023-06-14T08:46:25;20.40;97.50
48007;DHT22;33771;48.180;11.400;2023-06-14T08:48:55;20.40;96.60
48007;DHT22;33771;48.180;11.400;2023-06-14T08:51:25;20.50;96.60
48007;DHT22;33771;48.180;11.400;2023-06-14T08:53:53;20.70;96.80
48007;DHT22;33771;48.180;11.400;2023-06-14T08:56:26;20.70;97.40
48007;DHT22;33771;48.180;11.400;2023-06-14T08:58:53;20.90;95.20
48007;DHT22;33771;48.180;11.400;2023-06-14T09:01:18;21.00;96.00
48007;DHT22;33771;48.180;11.400;2023-06-14T09:03:48;21.00;95.00
48007;DHT22;33771;48.180;11.400;2023-06-14T09:06:13;21.10;94.60
48007;DHT22;33771;48.180;11.400;2023-06-14T09:08:43;21.20;95.20
48007;DHT22;33771;48.180;11.400;2023-06-14T09:11:11;21.20;94.20
48007;DHT22;33771;48.180;11.400;2023-06-14T09:13:38;21.30;94.60
48007;DHT22;33771;48.180;11.400;2023-06-14T09:16:04;21.50;95.60
48007;DHT22;33771;48.180;11.400;2023-06-14T09:18:41;21.70;95.10
48007;DHT22;33771;48.180;11.400;2023-06-14T09:21:09;21.60;94.30
48007;DHT22;33771;48.180;11.400;2023-06-14T09:23:39;21.60;93.90
48007;DHT22;33771;48.180;11.400;2023-06-14T09:26:12;21.70;93.10
48007;DHT22;33771;48.180;11.400;2023-06-14T09:28:42;21.90;94.60
48007;DHT22;33771;48.180;11.400;2023-06-14T09:31:08;21.90;92.60
48007;DHT22;33771;48.180;11.400;2023-06-14T09:33:35;22.10;92.70
48007;DHT22;33771;48.180;11.400;2023-06-14T09:36:01;22.40;92.60
48007;DHT22;33771;48.180;11.400;2023-06-14T09:38:26;22.50;91.80
48007;DHT22;33771;48.180;11.400;2023-06-14T09:40:52;22.80;91.30
48007;DHT22;33771;48.180;11.400;2023-06-14T09:43:17;22.90;88.00
48007;DHT22;33771;48.180;11.400;2023-06-14T09:45:44;23.20;85.90
48007;DHT22;33771;48.180;11.400;2023-06-14T09:48:14;23.50;85.60
48007;DHT22;33771;48.180;11.400;2023-06-14T09:50:45;23.80;78.90
48007;DHT22;33771;48.180;11.400;2023-06-14T09:53:13;23.90;80.60
48007;DHT22;33771;48.180;11.400;2023-06-14T09:55:41;24.00;79.30
48007;DHT22;33771;48.180;11.400;2023-06-14T09:58:08;24.00;80.10
48007;DHT22;33771;48.180;11.400;2023-06-14T10:00:35;24.10;79.40
48007;DHT22;33771;48.180;11.400;2023-06-14T10:03:19;24.30;81.10
48007;DHT22;33771;48.180;11.400;2023-06-14T10:05:48;24.70;81.40
48007;DHT22;33771;48.180;11.400;2023-06-14T10:08:17;24.90;81.10
48007;DHT22;33771;48.180;11.400;2023-06-14T10:10:43;25.30;77.50
48007;DHT22;33771;48.180;11.400;2023-06-14T10:13:10;25.40;78.40
48007;DHT22;33771;48.180;11.400;2023-06-14T10:16:06;25.40;77.40
48007;DHT22;33771;48.180;11.400;2023-06-14T10:21:18;25.40;77.80
48007;DHT22;33771;48.180;11.400;2023-06-14T10:23:47;25.70;78.10
48007;DHT22;33771;48.180;11.400;2023-06-14T10:26:21;25.60;81.10
48007;DHT22;33771;48.180;11.400;2023-06-14T10:29:00;25.70;78.50
48007;DHT22;33771;48.180;11.400;2023-06-14T10:31:56;25.40;77.70
48007;DHT22;33771;48.180;11.400;2023-06-14T10:34:27;24.60;79.80
48007;DHT22;33771;48.180;11.400;2023-06-14T10:37:12;24.20;80.10
48007;DHT22;33771;48.180;11.400;2023-06-14T10:39:45;23.90;80.30
48007;DHT22;33771;48.180;11.400;2023-06-14T10:42:12;23.60;81.70
48007;DHT22;33771;48.180;11.400;2023-06-14T10:44:38;23.40;80.30
48007;DHT22;33771;48.180;11.400;2023-06-14T10:47:08;23.00;81.10
48007;DHT22;33771;48.180;11.400;2023-06-14T10:49:42;22.70;81.10
48007;DHT22;33771;48.180;11.400;2023-06-14T10:52:13;22.50;80.40
48007;DHT22;33771;48.180;11.400;2023-06-14T10:55:05;22.40;84.00
48007;DHT22;33771;48.180;11.400;2023-06-14T10:57:54;22.70;85.30
48007;DHT22;33771;48.180;11.400;2023-06-14T11:00:27;23.30;81.60
48007;DHT22;33771;48.180;11.400;2023-06-14T11:05:54;23.80;79.50
48007;DHT22;33771;48.180;11.400;2023-06-14T11:11:25;24.20;78.70
48007;DHT22;33771;48.180;11.400;2023-06-14T11:13:57;24.70;78.10
48007;DHT22;33771;48.180;11.400;2023-06-14T11:16:26;25.00;78.00
48007;DHT22;33771;48.180;11.400;2023-06-14T11:18:51;25.20;76.30
48007;DHT22;33771;48.180;11.400;2023-06-14T11:21:18;25.60;73.00
48007;DHT22;33771;48.180;11.400;2023-06-14T11:23:51;25.70;74.90
48007;DHT22;33771;48.180;11.400;2023-06-14T11:26:27;26.00;72.30
48007;DHT22;33771;48.180;11.400;2023-06-14T11:28:57;26.00;71.70
48007;DHT22;33771;48.180;11.400;2023-06-14T11:31:23;26.00;73.50
48007;DHT22;33771;48.180;11.400;2023-06-14T11:33:54;26.20;74.80
48007;DHT22;33771;48.180;11.400;2023-06-14T11:36:20;26.30;69.80
48007;DHT22;33771;48.180;11.400;2023-06-14T11:38:46;26.50;70.60
48007;DHT22;33771;48.180;11.400;2023-06-14T11:41:11;26.80;71.30
48007;DHT22;33771;48.180;11.400;2023-06-14T11:43:37;27.10;72.10
48007;DHT22;33771;48.180;11.400;2023-06-14T11:46:02;27.30;69.70
48007;DHT22;33771;48.180;11.400;2023-06-14T11:48:41;27.20;67.80
48007;DHT22;33771;48.180;11.400;2023-06-14T11:51:07;27.10;69.40
48007;DHT22;33771;48.180;11.400;2023-06-14T11:53:33;27.00;70.60
48007;DHT22;33771;48.180;11.400;2023-06-14T11:55:59;27.10;68.60
48007;DHT22;33771;48.180;11.400;2023-06-14T11:58:26;27.30;68.10
48007;DHT22;33771;48.180;11.400;2023-06-14T12:00:53;27.60;64.40
48007;DHT22;33771;48.180;11.400;2023-06-14T12:03:23;27.80;68.20
48007;DHT22;33771;48.180;11.400;2023-06-14T12:06:01;27.90;67.30
48007;DHT22;33771;48.180;11.400;2023-06-14T12:08:32;28.30;68.20
48007;DHT22;33771;48.180;11.400;2023-06-14T12:11:04;28.10;64.70
48007;DHT22;33771;48.180;11.400;2023-06-14T12:13:31;27.80;65.80
48007;DHT22;33771;48.180;11.400;2023-06-14T12:15:56;27.70;66.60
48007;DHT22;33771;48.180;11.400;2023-06-14T12:18:32;27.40;65.90
48007;DHT22;33771;48.180;11.400;2023-06-14T12:20:59;27.20;68.90
48007;DHT22;33771;48.180;11.400;2023-06-14T12:23:39;27.30;67.40
48007;DHT22;33771;48.180;11.400;2023-06-14T12:26:05;27.30;68.40
48007;DHT22;33771;48.180;11.400;2023-06-14T12:28:31;27.70;67.10
48007;DHT22;33771;48.180;11.400;2023-06-14T12:30:57;27.60;65.10
48007;DHT22;33771;48.180;11.400;2023-06-14T12:33:24;27.60;64.50
48007;DHT22;33771;48.180;11.400;2023-06-14T12:35:50;27.60;63.60
48007;DHT22;33771;48.180;11.400;2023-06-14T12:38:16;27.40;66.60
48007;DHT22;33771;48.180;11.400;2023-06-14T12:40:42;27.60;69.00
48007;DHT22;33771;48.180;11.400;2023-06-14T12:43:08;27.70;66.40
48007;DHT22;33771;48.180;11.400;2023-06-14T12:45:33;27.70;65.90
48007;DHT22;33771;48.180;11.400;2023-06-14T12:47:59;27.60;65.80
48007;DHT22;33771;48.180;11.400;2023-06-14T12:50:24;27.50;64.30
48007;DHT22;33771;48.180;11.400;2023-06-14T12:52:50;27.70;65.90
48007;DHT22;33771;48.180;11.400;2023-06-14T12:55:16;27.60;63.90
48007;DHT22;33771;48.180;11.400;2023-06-14T12:57:41;27.40;65.70
48007;DHT22;33771;48.180;11.400;2023-06-14T13:00:07;27.30;64.10
48007;DHT22;33771;48.180;11.400;2023-06-14T13:02:33;27.20;65.70
48007;DHT22;33771;48.180;11.400;2023-06-14T13:04:59;27.30;65.10
48007;DHT22;33771;48.180;11.400;2023-06-14T13:07:25;27.80;62.10
48007;DHT22;33771;48.180;11.400;2023-06-14T13:09:51;27.80;62.00
48007;DHT22;33771;48.180;11.400;2023-06-14T13:12:19;27.50;65.50
48007;DHT22;33771;48.180;11.400;2023-06-14T13:14:45;27.30;65.90
48007;DHT22;33771;48.180;11.400;2023-06-14T13:17:11;27.00;64.30
48007;DHT22;33771;48.180;11.400;2023-06-14T13:19:37;26.40;64.70
48007;DHT22;33771;48.180;11.400;2023-06-14T13:22:02;25.90;67.00
48007;DHT22;33771;48.180;11.400;2023-06-14T13:24:28;25.40;68.80
48007;DHT22;33771;48.180;11.400;2023-06-14T13:26:55;25.10;68.80
48007;DHT22;33771;48.180;11.400;2023-06-14T13:29:24;25.10;68.00
48007;DHT22;33771;48.180;11.400;2023-06-14T13:31:50;24.90;69.80
48007;DHT22;33771;48.180;11.400;2023-06-14T13:34:15;25.00;68.10
48007;DHT22;33771;48.180;11.400;2023-06-14T13:36:41;25.10;68.20
48007;DHT22;33771;48.180;11.400;2023-06-14T13:39:07;25.30;67.20
48007;DHT22;33771;48.180;11.400;2023-06-14T13:41:32;25.20;69.20
48007;DHT22;33771;48.180;11.400;2023-06-14T13:44:01;25.10;68.40
48007;DHT22;33771;48.180;11.400;2023-06-14T13:46:29;25.10;68.00
48007;DHT22;33771;48.180;11.400;2023-06-14T13:48:55;24.90;68.40
48007;DHT22;33771;48.180;11.400;2023-06-14T13:51:20;25.00;67.00
48007;DHT22;33771;48.180;11.400;2023-06-14T13:53:47;25.00;67.10
48007;DHT22;33771;48.180;11.400;2023-06-14T13:56:13;24.80;68.60
48007;DHT22;33771;48.180;11.400;2023-06-14T13:58:38;24.70;67.80
48007;DHT22;33771;48.180;11.400;2023-06-14T14:01:04;24.70;67.30
48007;DHT22;33771;48.180;11.400;2023-06-14T14:03:30;24.50;66.00
48007;DHT22;33771;48.180;11.400;2023-06-14T14:05:56;24.40;67.40
48007;DHT22;33771;48.180;11.400;2023-06-14T14:08:21;24.50;69.30
48007;DHT22;33771;48.180;11.400;2023-06-14T14:10:47;24.40;68.70
48007;DHT22;33771;48.180;11.400;2023-06-14T14:13:12;24.40;67.90
48007;DHT22;33771;48.180;11.400;2023-06-14T14:15:38;24.20;69.70
48007;DHT22;33771;48.180;11.400;2023-06-14T14:18:03;24.10;70.20
48007;DHT22;33771;48.180;11.400;2023-06-14T14:20:31;24.10;69.90
48007;DHT22;33771;48.180;11.400;2023-06-14T14:22:56;24.10;69.80
48007;DHT22;33771;48.180;11.400;2023-06-14T14:25:22;24.10;68.00
48007;DHT22;33771;48.180;11.400;2023-06-14T14:27:48;23.90;68.20
48007;DHT22;33771;48.180;11.400;2023-06-14T14:30:13;23.70;71.20
48007;DHT22;33771;48.180;11.400;2023-06-14T14:32:40;23.60;69.60
48007;DHT22;33771;48.180;11.400;2023-06-14T14:35:06;23.50;69.20
48007;DHT22;33771;48.180;11.400;2023-06-14T14:37:34;23.40;70.10
48007;DHT22;33771;48.180;11.400;2023-06-14T14:39:59;23.40;68.70
48007;DHT22;33771;48.180;11.400;2023-06-14T14:42:25;23.20;71.30
48007;DHT22;33771;48.180;11.400;2023-06-14T14:44:52;23.20;71.00
48007;DHT22;33771;48.180;11.400;2023-06-14T14:47:17;23.20;70.90
48007;DHT22;33771;48.180;11.400;2023-06-14T14:49:43;23.10;70.80
48007;DHT22;33771;48.180;11.400;2023-06-14T14:52:08;23.10;70.50
48007;DHT22;33771;48.180;11.400;2023-06-14T14:54:34;23.10;70.20
48007;DHT22;33771;48.180;11.400;2023-06-14T14:57:01;23.20;71.30
48007;DHT22;33771;48.180;11.400;2023-06-14T14:59:26;23.10;69.30
48007;DHT22;33771;48.180;11.400;2023-06-14T15:01:52;23.00;69.50
48007;DHT22;33771;48.180;11.400;2023-06-14T15:04:18;23.00;72.00
48007;DHT22;33771;48.180;11.400;2023-06-14T15:06:43;23.10;74.90
48007;DHT22;33771;48.180;11.400;2023-06-14T15:09:09;23.10;72.90
48007;DHT22;33771;48.180;11.400;2023-06-14T15:11:35;23.20;73.20
48007;DHT22;33771;48.180;11.400;2023-06-14T15:14:00;23.20;73.40
48007;DHT22;33771;48.180;11.400;2023-06-14T15:16:26;23.20;73.90
48007;DHT22;33771;48.180;11.400;2023-06-14T15:18:51;23.30;73.60
48007;DHT22;33771;48.180;11.400;2023-06-14T15:21:17;23.40;73.60
48007;DHT22;33771;48.180;11.400;2023-06-14T15:23:45;23.40;72.00
48007;DHT22;33771;48.180;11.400;2023-06-14T15:26:11;23.30;71.70
48007;DHT22;33771;48.180;11.400;2023-06-14T15:28:36;23.30;71.80
48007;DHT22;33771;48.180;11.400;2023-06-14T15:31:02;23.20;72.10